sensor_id;sensor_type;location;lat;lon;timestamp;pressure;altitude;pressure_sealevel;temperature;humidity
28004;BME280;15330;51.234;6.754;2022-11-11T00:02:22;102459.81;;;9.47;88.03
28004;BME280;15330;51.234;6.754;2022-11-11T00:04:47;102469.59;;;9.36;88.34
28004;BME280;15330;51.234;6.754;2022-11-11T00:07:13;102477.97;;;9.55;87.92
28004;BME280;15330;51.234;6.754;2022-11-11T00:09:38;102487.31;;;9.61;87.39
28004;BME280;15330;51.234;6.754;2022-11-11T00:12:04;102488.72;;;9.42;88.39
28004;BME280;15330;51.234;6.754;2022-11-11T00:14:29;102489.84;;;9.51;87.90
28004;BME280;15330;51.234;6.754;2022-11-11T00:16:54;102486.25;;;9.39;88.39
28004;BME280;15330;51.234;6.754;2022-11-11T00:19:38;102485.34;;;9.51;87.41
28004;BME280;15330;51.234;6.754;2022-11-11T00:22:22;102492.78;;;9.35;88.51
28004;BME280;15330;51.234;6.754;2022-11-11T00:25:06;102497.31;;;9.46;88.11
28004;BME280;15330;51.234;6.754;2022-11-11T00:27:37;102485.50;;;9.37;88.72
28004;BME280;15330;51.234;6.754;2022-11-11T00:30:03;102486.38;;;9.38;88.59
28004;BME280;15330;51.234;6.754;2022-11-11T00:32:31;102481.78;;;9.40;88.57
28004;BME280;15330;51.234;6.754;2022-11-11T00:34:58;102483.97;;;9.46;88.37
28004;BME280;15330;51.234;6.754;2022-11-11T00:37:44;102489.63;;;9.30;88.71
28004;BME280;15330;51.234;6.754;2022-11-11T00:40:11;102472.75;;;9.30;89.11
28004;BME280;15330;51.234;6.754;2022-11-11T00:42:37;102465.81;;;9.27;89.00
28004;BME280;15330;51.234;6.754;2022-11-11T00:45:04;102475.78;;;9.36;88.82
28004;BME280;15330;51.234;6.754;2022-11-11T00:47:30;102476.53;;;9.38;88.71
28004;BME280;15330;51.234;6.754;2022-11-11T00:50:19;102474.44;;;9.31;89.24
28004;BME280;15330;51.234;6.754;2022-11-11T00:53:11;102478.72;;;9.33;88.68
28004;BME280;15330;51.234;6.754;2022-11-11T00:55:36;102468.69;;;9.24;89.45
28004;BME280;15330;51.234;6.754;2022-11-11T00:58:02;102473.28;;;9.46;88.06
28004;BME280;15330;51.234;6.754;2022-11-11T01:00:27;102478.47;;;9.36;89.00
28004;BME280;15330;51.234;6.754;2022-11-11T01:02:53;102476.72;;;9.24;89.76
28004;BME280;15330;51.234;6.754;2022-11-11T01:05:18;102492.00;;;9.22;89.57
28004;BME280;15330;51.234;6.754;2022-11-11T01:07:44;102501.09;;;9.19;89.79
28004;BME280;15330;51.234;6.754;2022-11-11T01:10:09;102497.00;;;9.27;89.41
28004;BME280;15330;51.234;6.754;2022-11-11T01:12:35;102499.00;;;9.12;90.03
28004;BME280;15330;51.234;6.754;2022-11-11T01:15:00;102502.56;;;9.00;90.63
28004;BME280;15330;51.234;6.754;2022-11-11T01:17:27;102501.31;;;8.93;91.06
28004;BME280;15330;51.234;6.754;2022-11-11T01:19:53;102502.94;;;9.06;90.52
28004;BME280;15330;51.234;6.754;2022-11-11T01:22:18;102504.44;;;9.10;90.50
28004;BME280;15330;51.234;6.754;2022-11-11T01:24:43;102501.34;;;9.04;90.79
28004;BME280;15330;51.234;6.754;2022-11-11T01:27:10;102498.41;;;8.96;90.85
28004;BME280;15330;51.234;6.754;2022-11-11T01:29:35;102496.78;;;8.93;91.32
28004;BME280;15330;51.234;6.754;2022-11-11T01:32:01;102499.59;;;8.92;91.34
28004;BME280;15330;51.234;6.754;2022-11-11T01:34:26;102502.38;;;8.90;91.23
28004;BME280;15330;51.234;6.754;2022-11-11T01:36:52;102497.41;;;9.09;90.58
28004;BME280;15330;51.234;6.754;2022-11-11T01:39:17;102497.78;;;8.92;91.12
28004;BME280;15330;51.234;6.754;2022-11-11T01:41:42;102499.78;;;9.01;90.76
28004;BME280;15330;51.234;6.754;2022-11-11T01:55:06;102501.66;;;8.75;92.16
28004;BME280;15330;51.234;6.754;2022-11-11T01:57:57;102508.78;;;8.88;91.60
28004;BME280;15330;51.234;6.754;2022-11-11T02:00:25;102505.53;;;8.95;91.56
28004;BME280;15330;51.234;6.754;2022-11-11T02:02:54;102507.94;;;8.74;91.79
28004;BME280;15330;51.234;6.754;2022-11-11T02:05:23;102508.28;;;8.70;92.11
28004;BME280;15330;51.234;6.754;2022-11-11T02:08:13;102511.06;;;8.68;92.59
28004;BME280;15330;51.234;6.754;2022-11-11T02:10:42;102511.06;;;8.68;92.26
28004;BME280;15330;51.234;6.754;2022-11-11T02:13:13;102510.09;;;8.82;91.71
28004;BME280;15330;51.234;6.754;2022-11-11T02:15:58;102502.97;;;8.94;91.15
28004;BME280;15330;51.234;6.754;2022-11-11T02:18:24;102505.38;;;8.86;91.26
28004;BME280;15330;51.234;6.754;2022-11-11T02:20:50;102503.34;;;8.76;91.76
28004;BME280;15330;51.234;6.754;2022-11-11T02:26:43;102502.53;;;8.63;92.18
28004;BME280;15330;51.234;6.754;2022-11-11T02:29:17;102500.69;;;8.76;91.60
28004;BME280;15330;51.234;6.754;2022-11-11T02:31:44;102499.66;;;8.66;92.25
28004;BME280;15330;51.234;6.754;2022-11-11T02:34:09;102502.22;;;8.68;92.59
28004;BME280;15330;51.234;6.754;2022-11-11T02:36:36;102496.53;;;8.72;91.93
28004;BME280;15330;51.234;6.754;2022-11-11T02:39:02;102492.28;;;8.70;91.93
28004;BME280;15330;51.234;6.754;2022-11-11T02:41:28;102490.03;;;8.76;91.96
28004;BME280;15330;51.234;6.754;2022-11-11T02:44:11;102497.09;;;8.65;92.48
28004;BME280;15330;51.234;6.754;2022-11-11T02:46:37;102498.03;;;8.64;92.19
28004;BME280;15330;51.234;6.754;2022-11-11T02:49:02;102491.84;;;8.63;92.34
28004;BME280;15330;51.234;6.754;2022-11-11T02:51:27;102495.81;;;8.70;91.93
28004;BME280;15330;51.234;6.754;2022-11-11T02:53:53;102498.03;;;8.64;92.29
28004;BME280;15330;51.234;6.754;2022-11-11T02:56:26;102516.41;;;8.56;92.54
28004;BME280;15330;51.234;6.754;2022-11-11T02:59:10;102500.69;;;8.76;91.72
28004;BME280;15330;51.234;6.754;2022-11-11T03:01:35;102507.44;;;8.69;91.90
28004;BME280;15330;51.234;6.754;2022-11-11T03:04:00;102513.75;;;8.56;92.45
28004;BME280;15330;51.234;6.754;2022-11-11T03:06:26;102512.13;;;8.53;92.51
28004;BME280;15330;51.234;6.754;2022-11-11T03:08:51;102502.56;;;8.51;92.75
28004;BME280;15330;51.234;6.754;2022-11-11T03:11:16;102494.75;;;8.60;92.00
28004;BME280;15330;51.234;6.754;2022-11-11T03:13:55;102497.84;;;8.54;92.29
28004;BME280;15330;51.234;6.754;2022-11-11T03:16:21;102493.38;;;8.55;92.38
28004;BME280;15330;51.234;6.754;2022-11-11T03:19:05;102498.38;;;8.59;91.96
28004;BME280;15330;51.234;6.754;2022-11-11T03:21:30;102498.19;;;8.50;92.58
28004;BME280;15330;51.234;6.754;2022-11-11T03:23:56;102492.97;;;8.48;92.76
28004;BME280;15330;51.234;6.754;2022-11-11T03:26:21;102498.69;;;8.55;92.49
28004;BME280;15330;51.234;6.754;2022-11-11T03:28:46;102508.00;;;8.49;92.75
28004;BME280;15330;51.234;6.754;2022-11-11T03:31:12;102510.13;;;8.44;93.28
28004;BME280;15330;51.234;6.754;2022-11-11T03:33:37;102513.75;;;8.56;92.46
28004;BME280;15330;51.234;6.754;2022-11-11T03:36:03;102509.16;;;8.45;92.77
28004;BME280;15330;51.234;6.754;2022-11-11T03:38:28;102491.56;;;8.55;92.62
28004;BME280;15330;51.234;6.754;2022-11-11T03:40:55;102487.41;;;8.51;92.71
28004;BME280;15330;51.234;6.754;2022-11-11T03:43:23;102492.53;;;8.29;94.16
28004;BME280;15330;51.234;6.754;2022-11-11T03:45:49;102495.44;;;8.38;93.41
28004;BME280;15330;51.234;6.754;2022-11-11T03:48:15;102486.47;;;8.39;93.22
28004;BME280;15330;51.234;6.754;2022-11-11T03:50:40;102484.66;;;8.40;93.00
28004;BME280;15330;51.234;6.754;2022-11-11T03:53:06;102487.63;;;8.35;93.47
28004;BME280;15330;51.234;6.754;2022-11-11T03:55:32;102485.16;;;8.32;93.11
28004;BME280;15330;51.234;6.754;2022-11-11T03:57:57;102490.84;;;8.40;92.83
28004;BME280;15330;51.234;6.754;2022-11-11T04:00:25;102490.81;;;8.28;93.23
28004;BME280;15330;51.234;6.754;2022-11-11T04:02:51;102481.75;;;8.30;93.06
28004;BME280;15330;51.234;6.754;2022-11-11T04:05:43;102496.25;;;8.26;93.95
28004;BME280;15330;51.234;6.754;2022-11-11T04:08:27;102495.59;;;8.23;93.71
28004;BME280;15330;51.234;6.754;2022-11-11T04:11:13;102501.16;;;8.32;93.14
28004;BME280;15330;51.234;6.754;2022-11-11T04:13:42;102507.47;;;8.31;93.08
28004;BME280;15330;51.234;6.754;2022-11-11T04:16:27;102505.34;;;8.49;92.27
28004;BME280;15330;51.234;6.754;2022-11-11T04:18:52;102505.75;;;8.30;93.36
28004;BME280;15330;51.234;6.754;2022-11-11T04:21:36;102508.16;;;8.21;93.08
28004;BME280;15330;51.234;6.754;2022-11-11T04:24:15;102509.56;;;8.14;93.70
28004;BME280;15330;51.234;6.754;2022-11-11T04:27:02;102512.44;;;8.10;94.02
28004;BME280;15330;51.234;6.754;2022-11-11T04:29:29;102512.13;;;8.28;93.21
28004;BME280;15330;51.234;6.754;2022-11-11T04:31:57;102509.47;;;8.15;93.48
28004;BME280;15330;51.234;6.754;2022-11-11T04:34:43;102500.94;;;8.23;93.28
28004;BME280;15330;51.234;6.754;2022-11-11T04:37:09;102507.31;;;8.20;93.74
28004;BME280;15330;51.234;6.754;2022-11-11T04:39:34;102509.06;;;8.34;92.52
28004;BME280;15330;51.234;6.754;2022-11-11T04:42:18;102518.13;;;8.31;92.70
28004;BME280;15330;51.234;6.754;2022-11-11T04:44:44;102512.47;;;8.36;92.46
28004;BME280;15330;51.234;6.754;2022-11-11T04:47:27;102504.78;;;8.44;92.16
28004;BME280;15330;51.234;6.754;2022-11-11T04:49:53;102516.84;;;8.37;92.09
28004;BME280;15330;51.234;6.754;2022-11-11T04:52:18;102512.47;;;8.36;91.98
28004;BME280;15330;51.234;6.754;2022-11-11T04:54:54;102517.38;;;8.29;92.27
28004;BME280;15330;51.234;6.754;2022-11-11T04:57:47;102514.16;;;8.24;92.17
28004;BME280;15330;51.234;6.754;2022-11-11T05:00:15;102510.03;;;8.33;92.29
28004;BME280;15330;51.234;6.754;2022-11-11T05:02:41;102511.63;;;8.35;92.10
28004;BME280;15330;51.234;6.754;2022-11-11T05:05:26;102506.94;;;8.39;91.78
28004;BME280;15330;51.234;6.754;2022-11-11T05:07:51;102497.50;;;8.21;92.63
28004;BME280;15330;51.234;6.754;2022-11-11T05:10:35;102494.75;;;8.22;92.84
28004;BME280;15330;51.234;6.754;2022-11-11T05:13:01;102498.06;;;8.26;92.71
28004;BME280;15330;51.234;6.754;2022-11-11T05:15:45;102494.78;;;8.48;91.70
28004;BME280;15330;51.234;6.754;2022-11-11T05:18:37;102493.81;;;8.36;92.20
28004;BME280;15330;51.234;6.754;2022-11-11T05:21:24;102500.09;;;8.35;92.19
28004;BME280;15330;51.234;6.754;2022-11-11T05:23:52;102499.00;;;8.25;92.85
28004;BME280;15330;51.234;6.754;2022-11-11T05:26:35;102499.56;;;8.42;91.83
28004;BME280;15330;51.234;6.754;2022-11-11T05:29:01;102504.34;;;8.12;92.75
28004;BME280;15330;51.234;6.754;2022-11-11T05:31:28;102508.41;;;8.18;93.03
28004;BME280;15330;51.234;6.754;2022-11-11T05:33:54;102521.53;;;8.46;91.60
28004;BME280;15330;51.234;6.754;2022-11-11T05:36:19;102509.81;;;8.36;92.29
28004;BME280;15330;51.234;6.754;2022-11-11T05:38:45;102521.72;;;8.18;92.28
28004;BME280;15330;51.234;6.754;2022-11-11T05:41:10;102526.09;;;8.19;92.83
28004;BME280;15330;51.234;6.754;2022-11-11T05:43:36;102523.75;;;8.27;92.26
28004;BME280;15330;51.234;6.754;2022-11-11T05:46:01;102530.69;;;8.29;92.09
28004;BME280;15330;51.234;6.754;2022-11-11T05:48:26;102533.38;;;8.29;92.48
28004;BME280;15330;51.234;6.754;2022-11-11T05:50:51;102536.97;;;8.16;92.47
28004;BME280;15330;51.234;6.754;2022-11-11T05:53:17;102537.84;;;8.29;91.82
28004;BME280;15330;51.234;6.754;2022-11-11T05:55:52;102532.66;;;8.40;91.58
28004;BME280;15330;51.234;6.754;2022-11-11T05:58:18;102539.25;;;8.34;92.23
28004;BME280;15330;51.234;6.754;2022-11-11T06:00:43;102530.41;;;8.34;91.93
28004;BME280;15330;51.234;6.754;2022-11-11T06:03:09;102536.59;;;8.34;91.85
28004;BME280;15330;51.234;6.754;2022-11-11T06:05:37;102541.47;;;8.28;92.06
28004;BME280;15330;51.234;6.754;2022-11-11T06:08:03;102541.72;;;8.37;91.76
28004;BME280;15330;51.234;6.754;2022-11-11T06:10:29;102545.72;;;8.18;92.51
28004;BME280;15330;51.234;6.754;2022-11-11T06:12:54;102545.75;;;8.30;92.00
28004;BME280;15330;51.234;6.754;2022-11-11T06:15:33;102545.28;;;8.24;92.22
28004;BME280;15330;51.234;6.754;2022-11-11T06:17:59;102551.50;;;8.62;91.46
28004;BME280;15330;51.234;6.754;2022-11-11T06:20:25;102545.22;;;8.38;91.96
28004;BME280;15330;51.234;6.754;2022-11-11T06:22:51;102546.78;;;8.28;91.97
28004;BME280;15330;51.234;6.754;2022-11-11T06:25:27;102543.91;;;8.31;92.12
28004;BME280;15330;51.234;6.754;2022-11-11T06:28:11;102551.06;;;8.30;91.99
28004;BME280;15330;51.234;6.754;2022-11-11T06:30:37;102547.53;;;8.17;92.58
28004;BME280;15330;51.234;6.754;2022-11-11T06:33:03;102552.78;;;8.19;92.49
28004;BME280;15330;51.234;6.754;2022-11-11T06:35:28;102556.00;;;8.36;91.95
28004;BME280;15330;51.234;6.754;2022-11-11T06:37:53;102546.03;;;8.13;92.44
28004;BME280;15330;51.234;6.754;2022-11-11T06:40:19;102552.13;;;8.15;92.66
28004;BME280;15330;51.234;6.754;2022-11-11T06:42:44;102561.22;;;8.38;91.84
28004;BME280;15330;51.234;6.754;2022-11-11T06:45:09;102567.53;;;8.37;92.22
28004;BME280;15330;51.234;6.754;2022-11-11T06:47:35;102576.75;;;8.19;92.43
28004;BME280;15330;51.234;6.754;2022-11-11T06:50:00;102577.22;;;8.38;92.06
28004;BME280;15330;51.234;6.754;2022-11-11T06:52:26;102584.31;;;8.25;91.82
28004;BME280;15330;51.234;6.754;2022-11-11T06:54:51;102584.22;;;8.26;91.96
28004;BME280;15330;51.234;6.754;2022-11-11T06:57:16;102593.44;;;8.35;91.58
28004;BME280;15330;51.234;6.754;2022-11-11T06:59:42;102590.13;;;8.44;91.15
28004;BME280;15330;51.234;6.754;2022-11-11T07:02:12;102600.59;;;8.60;91.07
28004;BME280;15330;51.234;6.754;2022-11-11T07:04:37;102597.22;;;8.18;92.30
28004;BME280;15330;51.234;6.754;2022-11-11T07:07:02;102595.38;;;8.45;91.39
28004;BME280;15330;51.234;6.754;2022-11-11T07:09:28;102598.13;;;8.44;91.71
28004;BME280;15330;51.234;6.754;2022-11-11T07:11:53;102601.88;;;8.54;91.19
28004;BME280;15330;51.234;6.754;2022-11-11T07:14:18;102595.06;;;8.50;90.66
28004;BME280;15330;51.234;6.754;2022-11-11T07:16:44;102603.16;;;8.49;91.33
28004;BME280;15330;51.234;6.754;2022-11-11T07:19:10;102598.78;;;8.60;90.88
28004;BME280;15330;51.234;6.754;2022-11-11T07:21:35;102592.91;;;8.80;89.78
28004;BME280;15330;51.234;6.754;2022-11-11T07:24:01;102605.69;;;8.63;90.08
28004;BME280;15330;51.234;6.754;2022-11-11T07:26:26;102609.88;;;8.67;90.33
28004;BME280;15330;51.234;6.754;2022-11-11T07:28:51;102596.75;;;8.76;89.82
28004;BME280;15330;51.234;6.754;2022-11-11T07:31:17;102609.16;;;9.14;88.41
28004;BME280;15330;51.234;6.754;2022-11-11T07:33:42;102606.97;;;8.95;88.85
28004;BME280;15330;51.234;6.754;2022-11-11T07:36:07;102602.81;;;8.91;89.03
28004;BME280;15330;51.234;6.754;2022-11-11T07:38:33;102617.75;;;9.06;88.56
28004;BME280;15330;51.234;6.754;2022-11-11T07:40:58;102616.94;;;9.30;87.77
28004;BME280;15330;51.234;6.754;2022-11-11T07:43:23;102617.94;;;9.03;88.70
28004;BME280;15330;51.234;6.754;2022-11-11T07:45:49;102618.09;;;9.02;88.37
28004;BME280;15330;51.234;6.754;2022-11-11T07:48:15;102616.34;;;9.13;87.73
28004;BME280;15330;51.234;6.754;2022-11-11T07:50:40;102622.31;;;9.17;87.87
28004;BME280;15330;51.234;6.754;2022-11-11T07:53:06;102625.97;;;9.03;88.03
28004;BME280;15330;51.234;6.754;2022-11-11T07:55:31;102622.91;;;9.70;85.89
28004;BME280;15330;51.234;6.754;2022-11-11T07:57:57;102638.22;;;9.18;87.76
28004;BME280;15330;51.234;6.754;2022-11-11T08:00:23;102637.66;;;9.26;87.48
28004;BME280;15330;51.234;6.754;2022-11-11T08:02:48;102634.41;;;9.46;86.20
28004;BME280;15330;51.234;6.754;2022-11-11T08:05:14;102639.34;;;9.40;86.51
28004;BME280;15330;51.234;6.754;2022-11-11T08:07:40;102634.28;;;9.61;86.04
28004;BME280;15330;51.234;6.754;2022-11-11T08:10:07;102644.56;;;9.54;86.20
28004;BME280;15330;51.234;6.754;2022-11-11T08:12:33;102639.50;;;9.62;85.91
28004;BME280;15330;51.234;6.754;2022-11-11T08:15:17;102633.06;;;9.41;86.75
28004;BME280;15330;51.234;6.754;2022-11-11T08:17:42;102627.56;;;9.55;85.20
28004;BME280;15330;51.234;6.754;2022-11-11T08:20:09;102631.09;;;9.79;84.67
28004;BME280;15330;51.234;6.754;2022-11-11T08:22:41;102628.78;;;10.10;83.75
28004;BME280;15330;51.234;6.754;2022-11-11T08:25:09;102629.00;;;9.96;84.05
28004;BME280;15330;51.234;6.754;2022-11-11T08:27:35;102626.16;;;10.45;82.61
28004;BME280;15330;51.234;6.754;2022-11-11T08:30:02;102630.03;;;10.52;82.91
28004;BME280;15330;51.234;6.754;2022-11-11T08:32:27;102632.47;;;10.44;81.67
28004;BME280;15330;51.234;6.754;2022-11-11T08:34:53;102629.50;;;10.93;81.13
28004;BME280;15330;51.234;6.754;2022-11-11T08:37:18;102643.09;;;11.57;78.02
28004;BME280;15330;51.234;6.754;2022-11-11T08:39:43;102641.59;;;11.64;77.69
28004;BME280;15330;51.234;6.754;2022-11-11T08:42:09;102646.50;;;10.81;80.05
28004;BME280;15330;51.234;6.754;2022-11-11T08:44:34;102631.25;;;11.59;77.92
28004;BME280;15330;51.234;6.754;2022-11-11T08:46:59;102639.56;;;10.56;80.22
28004;BME280;15330;51.234;6.754;2022-11-11T08:49:25;102633.06;;;11.81;76.84
28004;BME280;15330;51.234;6.754;2022-11-11T08:51:50;102636.47;;;11.83;76.22
28004;BME280;15330;51.234;6.754;2022-11-11T08:54:15;102638.84;;;11.32;78.64
28004;BME280;15330;51.234;6.754;2022-11-11T08:56:41;102651.03;;;11.14;77.73
28004;BME280;15330;51.234;6.754;2022-11-11T08:59:07;102643.97;;;12.00;75.76
28004;BME280;15330;51.234;6.754;2022-11-11T09:01:34;102642.72;;;11.61;77.14
28004;BME280;15330;51.234;6.754;2022-11-11T09:03:59;102638.53;;;11.91;75.92
28004;BME280;15330;51.234;6.754;2022-11-11T09:06:24;102644.53;;;11.83;76.06
28004;BME280;15330;51.234;6.754;2022-11-11T09:08:50;102647.38;;;11.37;77.20
28004;BME280;15330;51.234;6.754;2022-11-11T09:11:15;102643.56;;;11.62;76.71
28004;BME280;15330;51.234;6.754;2022-11-11T09:13:40;102638.94;;;12.07;75.00
28004;BME280;15330;51.234;6.754;2022-11-11T09:16:06;102640.47;;;11.89;75.89
28004;BME280;15330;51.234;6.754;2022-11-11T09:18:32;102641.66;;;11.96;75.43
28004;BME280;15330;51.234;6.754;2022-11-11T09:20:58;102647.91;;;12.17;74.92
28004;BME280;15330;51.234;6.754;2022-11-11T09:23:26;102649.19;;;12.34;73.82
28004;BME280;15330;51.234;6.754;2022-11-11T09:25:51;102644.28;;;11.75;74.72
28004;BME280;15330;51.234;6.754;2022-11-11T09:28:17;102639.44;;;12.74;72.61
28004;BME280;15330;51.234;6.754;2022-11-11T09:30:42;102642.66;;;13.29;71.16
28004;BME280;15330;51.234;6.754;2022-11-11T09:33:08;102642.19;;;13.14;70.39
28004;BME280;15330;51.234;6.754;2022-11-11T09:35:34;102658.78;;;12.36;73.29
28004;BME280;15330;51.234;6.754;2022-11-11T09:38:01;102650.72;;;12.78;72.43
28004;BME280;15330;51.234;6.754;2022-11-11T09:40:38;102648.22;;;12.76;72.48
28004;BME280;15330;51.234;6.754;2022-11-11T09:43:51;102653.25;;;12.70;72.46
28004;BME280;15330;51.234;6.754;2022-11-11T09:46:06;102658.06;;;12.97;71.46
28004;BME280;15330;51.234;6.754;2022-11-11T09:48:48;102667.38;;;12.72;71.30
28004;BME280;15330;51.234;6.754;2022-11-11T09:52:18;102659.53;;;13.41;69.90
28004;BME280;15330;51.234;6.754;2022-11-11T09:54:36;102648.91;;;14.56;66.11
28004;BME280;15330;51.234;6.754;2022-11-11T09:57:11;102648.50;;;14.51;65.67
28004;BME280;15330;51.234;6.754;2022-11-11T09:59:48;102656.25;;;13.87;67.61
28004;BME280;15330;51.234;6.754;2022-11-11T10:08:08;102658.25;;;14.04;66.30
28004;BME280;15330;51.234;6.754;2022-11-11T10:10:43;102663.75;;;13.34;69.06
28004;BME280;15330;51.234;6.754;2022-11-11T10:13:14;102660.78;;;13.27;69.66
28004;BME280;15330;51.234;6.754;2022-11-11T10:21:13;102654.41;;;15.93;60.06
28004;BME280;15330;51.234;6.754;2022-11-11T10:23:39;102670.78;;;15.64;62.71
28004;BME280;15330;51.234;6.754;2022-11-11T10:26:38;102672.53;;;15.19;63.00
28004;BME280;15330;51.234;6.754;2022-11-11T10:29:12;102664.50;;;14.53;64.60
28004;BME280;15330;51.234;6.754;2022-11-11T10:31:39;102664.88;;;15.51;62.85
28004;BME280;15330;51.234;6.754;2022-11-11T10:34:09;102658.78;;;15.49;62.30
28004;BME280;15330;51.234;6.754;2022-11-11T10:36:43;102663.84;;;15.34;62.60
28004;BME280;15330;51.234;6.754;2022-11-11T10:39:14;102654.41;;;15.93;60.94
28004;BME280;15330;51.234;6.754;2022-11-11T10:41:44;102660.22;;;14.69;63.47
28004;BME280;15330;51.234;6.754;2022-11-11T10:44:37;102663.69;;;15.26;62.13
28004;BME280;15330;51.234;6.754;2022-11-11T10:49:37;102663.66;;;14.52;64.54
28004;BME280;15330;51.234;6.754;2022-11-11T10:52:15;102665.63;;;14.50;63.47
28004;BME280;15330;51.234;6.754;2022-11-11T10:54:51;102665.38;;;14.53;64.96
28004;BME280;15330;51.234;6.754;2022-11-11T10:57:36;102667.84;;;13.68;66.88
28004;BME280;15330;51.234;6.754;2022-11-11T11:00:12;102680.22;;;13.50;67.84
28004;BME280;15330;51.234;6.754;2022-11-11T11:02:46;102660.75;;;12.97;69.48
28004;BME280;15330;51.234;6.754;2022-11-11T11:05:26;102669.75;;;13.47;68.39
28004;BME280;15330;51.234;6.754;2022-11-11T11:07:59;102664.59;;;13.25;69.58
28004;BME280;15330;51.234;6.754;2022-11-11T11:10:42;102669.00;;;13.05;69.34
28004;BME280;15330;51.234;6.754;2022-11-11T11:16:03;102675.03;;;13.58;67.96
28004;BME280;15330;51.234;6.754;2022-11-11T11:18:29;102669.44;;;14.19;66.28
28004;BME280;15330;51.234;6.754;2022-11-11T11:20:57;102671.81;;;13.93;67.46
28004;BME280;15330;51.234;6.754;2022-11-11T11:23:39;102661.38;;;14.00;67.32
28004;BME280;15330;51.234;6.754;2022-11-11T11:26:05;102666.13;;;13.57;68.73
28004;BME280;15330;51.234;6.754;2022-11-11T11:28:32;102670.28;;;14.00;67.20
28004;BME280;15330;51.234;6.754;2022-11-11T11:33:25;102680.69;;;13.65;67.23
28004;BME280;15330;51.234;6.754;2022-11-11T11:35:50;102674.56;;;13.53;68.32
28004;BME280;15330;51.234;6.754;2022-11-11T11:38:16;102673.88;;;13.20;68.95
28004;BME280;15330;51.234;6.754;2022-11-11T11:40:54;102661.34;;;13.80;68.15
28004;BME280;15330;51.234;6.754;2022-11-11T11:43:36;102662.63;;;13.95;67.40
28004;BME280;15330;51.234;6.754;2022-11-11T11:46:12;102659.72;;;13.49;68.77
28004;BME280;15330;51.234;6.754;2022-11-11T11:56:35;102644.75;;;13.16;70.66
28004;BME280;15330;51.234;6.754;2022-11-11T12:04:26;102637.75;;;13.44;69.59
28004;BME280;15330;51.234;6.754;2022-11-11T12:07:19;102633.50;;;13.41;69.94
28004;BME280;15330;51.234;6.754;2022-11-11T12:10:23;102635.22;;;13.52;69.74
28004;BME280;15330;51.234;6.754;2022-11-11T12:13:11;102631.44;;;13.64;69.29
28004;BME280;15330;51.234;6.754;2022-11-11T12:15:58;102633.31;;;14.31;67.35
28004;BME280;15330;51.234;6.754;2022-11-11T12:21:45;102631.44;;;13.64;68.52
28004;BME280;15330;51.234;6.754;2022-11-11T12:29:46;102617.66;;;13.38;69.33
28004;BME280;15330;51.234;6.754;2022-11-11T12:43:28;102595.81;;;13.91;67.12
28004;BME280;15330;51.234;6.754;2022-11-11T12:46:05;102594.50;;;14.05;67.00
28004;BME280;15330;51.234;6.754;2022-11-11T12:52:00;102594.94;;;13.81;68.02
28004;BME280;15330;51.234;6.754;2022-11-11T13:05:28;102597.47;;;13.63;68.57
28004;BME280;15330;51.234;6.754;2022-11-11T13:13:46;102587.88;;;14.09;67.28
28004;BME280;15330;51.234;6.754;2022-11-11T13:16:22;102580.22;;;14.04;67.31
28004;BME280;15330;51.234;6.754;2022-11-11T13:19:53;102588.91;;;14.64;66.22
28004;BME280;15330;51.234;6.754;2022-11-11T13:21:52;102588.53;;;14.49;66.00
28004;BME280;15330;51.234;6.754;2022-11-11T13:24:22;102593.66;;;14.43;65.90
28004;BME280;15330;51.234;6.754;2022-11-11T13:26:53;102586.13;;;14.27;66.39
28004;BME280;15330;51.234;6.754;2022-11-11T13:31:53;102588.91;;;14.64;65.58
28004;BME280;15330;51.234;6.754;2022-11-11T13:34:19;102585.41;;;14.34;66.36
28004;BME280;15330;51.234;6.754;2022-11-11T13:36:48;102584.56;;;14.34;66.33
28004;BME280;15330;51.234;6.754;2022-11-11T13:39:25;102577.31;;;14.54;65.92
28004;BME280;15330;51.234;6.754;2022-11-11T13:41:54;102582.88;;;14.52;66.00
28004;BME280;15330;51.234;6.754;2022-11-11T13:44:24;102587.25;;;14.24;65.68
28004;BME280;15330;51.234;6.754;2022-11-11T13:46:59;102586.72;;;14.30;65.97
28004;BME280;15330;51.234;6.754;2022-11-11T13:49:43;102585.03;;;14.39;65.89
28004;BME280;15330;51.234;6.754;2022-11-11T13:52:29;102588.69;;;14.48;66.03
28004;BME280;15330;51.234;6.754;2022-11-11T13:55:02;102581.19;;;14.32;65.64
28004;BME280;15330;51.234;6.754;2022-11-11T13:57:30;102582.03;;;14.42;65.86
28004;BME280;15330;51.234;6.754;2022-11-11T14:00:03;102587.91;;;14.65;64.94
28004;BME280;15330;51.234;6.754;2022-11-11T14:02:31;102580.72;;;14.37;65.56
28004;BME280;15330;51.234;6.754;2022-11-11T14:12:51;102584.06;;;14.77;65.41
28004;BME280;15330;51.234;6.754;2022-11-11T14:18:02;102580.97;;;14.72;64.37
28004;BME280;15330;51.234;6.754;2022-11-11T14:28:36;102581.53;;;14.66;63.86
28004;BME280;15330;51.234;6.754;2022-11-11T14:34:04;102582.13;;;14.60;64.42
28004;BME280;15330;51.234;6.754;2022-11-11T14:42:02;102576.34;;;14.45;64.31
28004;BME280;15330;51.234;6.754;2022-11-11T14:55:00;102578.06;;;14.27;65.09
28004;BME280;15330;51.234;6.754;2022-11-11T14:57:37;102570.16;;;14.06;65.42
28004;BME280;15330;51.234;6.754;2022-11-11T15:00:10;102577.31;;;14.34;65.06
28004;BME280;15330;51.234;6.754;2022-11-11T15:02:45;102575.69;;;13.95;65.45
28004;BME280;15330;51.234;6.754;2022-11-11T15:05:52;102574.28;;;14.01;66.33
28004;BME280;15330;51.234;6.754;2022-11-11T15:08:24;102578.66;;;13.92;66.09
28004;BME280;15330;51.234;6.754;2022-11-11T15:16:29;102576.81;;;13.92;66.98
28004;BME280;15330;51.234;6.754;2022-11-11T15:27:26;102574.13;;;13.64;67.91
28004;BME280;15330;51.234;6.754;2022-11-11T15:30:09;102580.34;;;13.64;68.07
28004;BME280;15330;51.234;6.754;2022-11-11T15:33:10;102574.38;;;13.60;68.36
28004;BME280;15330;51.234;6.754;2022-11-11T15:36:09;102580.78;;;13.59;68.35